createdAt,value
2023-03-02T00:02:41.750Z,4.10
2023-03-02T00:06:44.887Z,4.20
2023-03-02T00:10:49.066Z,4.10
2023-03-02T00:14:51.861Z,4.10
2023-03-02T00:18:54.671Z,4.00
2023-03-02T00:22:57.468Z,3.90
2023-03-02T00:27:01.631Z,3.90
2023-03-02T00:31:06.200Z,3.90
2023-03-02T00:35:10.054Z,3.90
2023-03-02T00:39:12.841Z,3.80
2023-03-02T00:43:17.051Z,3.90
2023-03-02T00:47:20.155Z,3.80
2023-03-02T00:51:23.031Z,3.80
2023-03-02T00:55:25.848Z,3.80
2023-03-02T00:59:30.397Z,3.80
2023-03-02T01:03:40.553Z,3.70
2023-03-02T01:07:44.331Z,3.70
2023-03-02T01:11:47.104Z,3.70
2023-03-02T01:16:00.325Z,3.70
2023-03-02T01:20:04.756Z,3.70
2023-03-02T01:24:08.219Z,3.70
2023-03-02T01:28:10.973Z,3.70
2023-03-02T01:32:15.155Z,3.70
2023-03-02T01:36:18.716Z,3.80
2023-03-02T01:40:21.615Z,3.90
2023-03-02T01:44:39.651Z,3.80
2023-03-02T01:48:47.942Z,3.70
2023-03-02T01:52:56.366Z,3.70
2023-03-02T01:57:03.345Z,3.80
2023-03-02T02:01:15.468Z,3.70
2023-03-02T02:05:24.051Z,3.70
2023-03-02T02:09:29.081Z,3.60
2023-03-02T02:13:32.121Z,3.70
2023-03-02T02:17:35.257Z,3.70
2023-03-02T02:21:39.482Z,3.70
2023-03-02T02:25:49.132Z,3.70
2023-03-02T02:29:54.489Z,3.70
2023-03-02T02:34:02.260Z,3.80
2023-03-02T02:38:08.724Z,3.70
2023-03-02T02:42:15.560Z,3.70
2023-03-02T02:46:21.180Z,3.60
2023-03-02T02:50:29.274Z,3.70
2023-03-02T02:54:33.542Z,3.60
2023-03-02T02:58:40.763Z,3.50
2023-03-02T03:02:47.176Z,3.50
2023-03-02T03:06:53.037Z,3.40
2023-03-02T03:10:56.177Z,3.30
2023-03-02T03:14:59.969Z,3.30
2023-03-02T03:19:09.092Z,3.30
2023-03-02T03:23:11.940Z,3.30
2023-03-02T03:27:17.281Z,3.30
2023-03-02T03:31:21.007Z,3.30
2023-03-02T03:35:25.365Z,3.20
2023-03-02T03:39:29.544Z,3.20
2023-03-02T03:43:32.725Z,3.20
2023-03-02T03:47:35.798Z,3.20
2023-03-02T03:51:41.967Z,3.30
2023-03-02T03:55:45.462Z,3.30
2023-03-02T03:59:49.752Z,3.30
2023-03-02T04:03:53.788Z,3.30
2023-03-02T04:08:02.147Z,3.20
2023-03-02T04:12:07.962Z,3.20
2023-03-02T04:16:11.754Z,3.20
2023-03-02T04:20:16.898Z,3.20
2023-03-02T04:24:24.554Z,3.20
2023-03-02T04:28:30.595Z,3.20
2023-03-02T04:32:33.749Z,3.20
2023-03-02T04:36:38.904Z,3.20
2023-03-02T04:40:46.150Z,3.20
2023-03-02T04:44:49.180Z,3.30
2023-03-02T04:48:52.038Z,3.20
2023-03-02T04:52:54.843Z,3.30
2023-03-02T04:56:58.962Z,3.30
2023-03-02T05:01:02.350Z,3.30
2023-03-02T05:05:05.653Z,3.30
2023-03-02T05:09:08.963Z,3.40
2023-03-02T05:13:13.129Z,3.30
2023-03-02T05:17:15.947Z,3.30
2023-03-02T05:21:19.852Z,3.40
2023-03-02T05:25:23.032Z,3.40
2023-03-02T05:29:27.207Z,3.40
2023-03-02T05:33:30.751Z,3.40
2023-03-02T05:37:33.644Z,3.40
2023-03-02T05:41:37.818Z,3.40
2023-03-02T05:45:41.952Z,3.40
2023-03-02T05:49:44.772Z,3.40
2023-03-02T05:53:48.534Z,3.30
2023-03-02T05:57:51.379Z,3.30
2023-03-02T06:01:59.413Z,3.20
2023-03-02T06:06:02.184Z,3.20
2023-03-02T06:10:05.390Z,3.20
2023-03-02T06:14:08.114Z,3.20
2023-03-02T06:18:12.555Z,3.30
2023-03-02T06:22:15.359Z,3.30
2023-03-02T06:26:18.124Z,3.40
2023-03-02T06:30:23.297Z,3.50
2023-03-02T06:34:29.327Z,3.60
2023-03-02T06:38:32.049Z,3.70
2023-03-02T06:42:34.821Z,3.90
2023-03-02T06:46:37.829Z,4.00
2023-03-02T06:50:41.966Z,4.10
2023-03-02T06:54:44.743Z,4.30
2023-03-02T06:58:47.589Z,4.40
2023-03-02T07:02:50.374Z,4.50
2023-03-02T07:06:54.543Z,4.30
2023-03-02T07:10:57.315Z,4.60
2023-03-02T07:15:00.139Z,5.10
2023-03-02T07:19:03.011Z,5.60
2023-03-02T07:23:07.513Z,6.20
2023-03-02T07:27:10.267Z,6.80
2023-03-02T07:31:13.309Z,7.10
2023-03-02T07:35:17.061Z,7.60
2023-03-02T07:39:21.798Z,7.60
2023-03-02T07:43:26.008Z,7.50
2023-03-02T07:47:28.773Z,7.40
2023-03-02T07:51:31.978Z,7.30
2023-03-02T07:55:36.297Z,7.20
2023-03-02T07:59:39.193Z,7.10
2023-03-02T08:03:42.056Z,7.20
2023-03-02T08:07:46.908Z,7.30
2023-03-02T08:11:51.040Z,7.60
2023-03-02T08:16:00.805Z,7.70
2023-03-02T08:20:03.968Z,7.90
2023-03-02T08:24:07.202Z,8.10
2023-03-02T08:28:11.364Z,8.20
2023-03-02T08:32:14.345Z,8.30
2023-03-02T08:36:19.057Z,8.40
2023-03-02T08:40:21.876Z,8.70
2023-03-02T08:44:26.283Z,9.00
2023-03-02T08:48:30.101Z,9.10
2023-03-02T08:52:34.338Z,9.10
2023-03-02T08:56:39.233Z,9.60
2023-03-02T09:00:44.067Z,10.40
2023-03-02T09:04:46.944Z,12.80
2023-03-02T09:08:50.360Z,13.10
2023-03-02T09:12:53.140Z,13.40
2023-03-02T09:16:57.382Z,15.20
2023-03-02T09:21:00.284Z,16.90
2023-03-02T09:25:03.158Z,17.90
2023-03-02T09:29:07.069Z,18.70
2023-03-02T09:33:11.253Z,20.70
2023-03-02T09:37:14.067Z,21.40
2023-03-02T09:41:58.300Z,22.90
2023-03-02T09:46:16.280Z,23.70
2023-03-02T09:50:30.322Z,24.30
2023-03-02T09:54:32.933Z,25.20
2023-03-02T09:58:39.413Z,24.60
2023-03-02T10:02:48.964Z,26.00
2023-03-02T10:06:58.801Z,27.10
2023-03-02T10:11:08.950Z,27.50
2023-03-02T10:15:15.746Z,28.00
2023-03-02T10:19:25.057Z,28.60
2023-03-02T10:23:39.857Z,29.00
2023-03-02T10:27:45.220Z,29.40
2023-03-02T10:31:52.823Z,29.80
2023-03-02T10:35:55.845Z,30.30
2023-03-02T10:40:00.252Z,30.10
2023-03-02T10:44:06.855Z,30.40
2023-03-02T10:48:13.518Z,30.80
2023-03-02T10:52:18.148Z,30.70
2023-03-02T10:56:22.878Z,31.40
2023-03-02T11:00:28.586Z,31.50
2023-03-02T11:04:31.512Z,31.40
2023-03-02T11:08:34.419Z,30.90
2023-03-02T11:12:38.726Z,31.80
2023-03-02T11:16:41.572Z,32.20
2023-03-02T11:20:48.474Z,32.50
2023-03-02T11:24:56.136Z,31.30
2023-03-02T11:29:05.213Z,32.30
2023-03-02T11:33:13.157Z,32.60
2023-03-02T11:37:19.590Z,32.70
2023-03-02T11:41:29.840Z,32.90
2023-03-02T11:45:37.886Z,33.00
2023-03-02T11:49:43.562Z,33.40
2023-03-02T11:53:51.363Z,33.30
2023-03-02T11:57:56.228Z,33.40
2023-03-02T12:02:01.834Z,33.20
2023-03-02T12:06:07.979Z,33.10
2023-03-02T12:10:28.495Z,32.40
2023-03-02T12:14:38.912Z,32.20
2023-03-02T12:18:48.834Z,32.20
2023-03-02T12:22:52.363Z,32.50
2023-03-02T12:27:03.377Z,32.60
2023-03-02T12:31:11.433Z,31.50
2023-03-02T12:35:20.486Z,31.70
2023-03-02T12:39:35.119Z,31.80
2023-03-02T12:43:38.850Z,31.80
2023-03-02T12:47:45.679Z,32.10
2023-03-02T12:51:53.987Z,32.00
2023-03-02T12:55:57.490Z,31.40
2023-03-02T13:00:02.473Z,30.80
2023-03-02T13:04:05.350Z,30.40
2023-03-02T13:08:17.156Z,29.60
2023-03-02T13:12:20.111Z,27.20
2023-03-02T13:16:25.435Z,26.00
2023-03-02T13:20:30.267Z,25.80
2023-03-02T13:24:44.767Z,25.60
2023-03-02T13:28:47.627Z,24.70
2023-03-02T13:32:51.262Z,23.50
2023-03-02T13:36:54.510Z,23.00
2023-03-02T13:40:58.766Z,22.50
2023-03-02T13:45:20.542Z,21.80
2023-03-02T13:49:31.283Z,21.70
2023-03-02T13:53:38.021Z,21.30
2023-03-02T13:57:42.587Z,21.40
2023-03-02T14:01:45.741Z,20.90
2023-03-02T14:05:48.561Z,19.70
2023-03-02T14:09:51.294Z,19.60
2023-03-02T14:13:56.193Z,19.30
2023-03-02T14:17:59.112Z,19.00
2023-03-02T14:22:01.903Z,18.40
2023-03-02T14:26:20.332Z,18.20
2023-03-02T14:30:24.516Z,18.00
2023-03-02T14:34:27.952Z,17.50
2023-03-02T14:38:31.134Z,17.20
2023-03-02T14:42:34.018Z,17.30
2023-03-02T14:46:38.315Z,16.60
2023-03-02T14:50:44.625Z,16.50
2023-03-02T14:54:51.999Z,16.20
2023-03-02T14:58:55.104Z,16.20
2023-03-02T15:02:59.509Z,15.90
2023-03-02T15:07:02.394Z,15.70
2023-03-02T15:11:05.230Z,15.10
2023-03-02T15:15:09.184Z,14.50
2023-03-02T15:19:13.346Z,14.50
2023-03-02T15:23:16.085Z,14.20
2023-03-02T15:27:18.830Z,13.80
2023-03-02T15:31:21.899Z,13.20
2023-03-02T15:35:26.527Z,13.30
2023-03-02T15:39:29.216Z,13.20
2023-03-02T15:43:32.025Z,12.70
2023-03-02T15:47:34.828Z,12.50
2023-03-02T15:51:38.963Z,12.50
2023-03-02T15:55:42.504Z,12.30
2023-03-02T15:59:46.238Z,12.20
2023-03-02T16:03:49.063Z,12.10
2023-03-02T16:07:53.278Z,11.90
2023-03-02T16:11:56.160Z,11.50
2023-03-02T16:16:01.543Z,11.40
2023-03-02T16:20:04.615Z,11.10
2023-03-02T16:24:09.726Z,11.20
2023-03-02T16:28:12.922Z,11.00
2023-03-02T16:32:15.897Z,10.90
2023-03-02T16:36:18.823Z,10.60
2023-03-02T16:40:23.615Z,10.20
2023-03-02T16:44:26.879Z,10.60
2023-03-02T16:48:29.723Z,10.20
2023-03-02T16:52:32.856Z,9.90
2023-03-02T16:56:37.095Z,9.90
2023-03-02T17:00:39.989Z,9.70
2023-03-02T17:04:43.084Z,9.40
2023-03-02T17:08:45.954Z,9.30
2023-03-02T17:12:50.528Z,9.10
2023-03-02T17:16:53.637Z,9.00
2023-03-02T17:20:58.510Z,8.70
2023-03-02T17:25:03.543Z,8.90
2023-03-02T17:29:08.782Z,9.10
2023-03-02T17:33:12.089Z,8.80
2023-03-02T17:37:17.280Z,9.00
2023-03-02T17:41:21.389Z,8.90
2023-03-02T17:45:27.557Z,8.80
2023-03-02T17:49:30.634Z,8.70
2023-03-02T17:53:33.504Z,8.40
2023-03-02T17:57:37.103Z,8.30
2023-03-02T18:01:43.420Z,8.50
2023-03-02T18:05:46.060Z,8.20
2023-03-02T18:09:48.900Z,8.00
2023-03-02T18:13:54.709Z,8.10
2023-03-02T18:17:58.939Z,8.60
2023-03-02T18:22:01.792Z,8.20
2023-03-02T18:26:04.833Z,7.60
2023-03-02T18:30:08.966Z,7.80
2023-03-02T18:34:13.288Z,7.90
2023-03-02T18:38:16.093Z,8.10
2023-03-02T18:42:19.224Z,7.90
2023-03-02T18:46:24.150Z,7.60
2023-03-02T18:50:30.151Z,7.40
2023-03-02T18:54:32.986Z,7.80
2023-03-02T18:58:36.023Z,7.70
2023-03-02T19:02:38.820Z,7.60
2023-03-02T19:06:43.572Z,7.40
2023-03-02T19:10:46.364Z,7.10
2023-03-02T19:14:49.125Z,6.80
2023-03-02T19:18:52.372Z,7.30
2023-03-02T19:22:56.692Z,6.70
2023-03-02T19:26:59.951Z,6.60
2023-03-02T19:31:06.718Z,6.70
2023-03-02T19:35:13.607Z,6.90
2023-03-02T19:39:18.038Z,6.90
2023-03-02T19:43:21.355Z,7.00
2023-03-02T19:47:24.587Z,6.70
2023-03-02T19:51:27.653Z,6.70
2023-03-02T19:55:31.859Z,6.70
2023-03-02T19:59:36.595Z,6.60
2023-03-02T20:03:39.534Z,6.60
2023-03-02T20:07:43.603Z,6.50
2023-03-02T20:11:48.277Z,6.50
2023-03-02T20:15:51.886Z,6.40
2023-03-02T20:19:55.936Z,6.30
2023-03-02T20:23:59.379Z,6.50
2023-03-02T20:28:05.935Z,6.20
2023-03-02T20:32:11.236Z,6.10
2023-03-02T20:36:14.901Z,6.30
2023-03-02T20:40:19.573Z,6.40
2023-03-02T20:44:25.456Z,6.10
2023-03-02T20:48:28.601Z,6.10
2023-03-02T20:52:31.588Z,6.10
2023-03-02T20:56:34.647Z,6.50
2023-03-02T21:00:39.994Z,6.00
2023-03-02T21:04:43.669Z,6.00
2023-03-02T21:08:47.405Z,6.50
2023-03-02T21:12:50.624Z,6.10
2023-03-02T21:16:55.775Z,6.10
2023-03-02T21:20:58.704Z,5.80
2023-03-02T21:25:02.433Z,6.30
2023-03-02T21:29:06.220Z,5.60
2023-03-02T21:33:10.476Z,5.90
2023-03-02T21:37:13.320Z,6.10
2023-03-02T21:41:16.125Z,5.80
2023-03-02T21:45:19.167Z,5.70
2023-03-02T21:49:24.390Z,5.60
2023-03-02T21:53:27.314Z,6.10
2023-03-02T21:57:30.448Z,6.00
2023-03-02T22:01:33.859Z,6.10
2023-03-02T22:05:39.098Z,5.80
2023-03-02T22:09:41.896Z,5.60
2023-03-02T22:13:44.723Z,5.60
2023-03-02T22:17:47.814Z,5.50
2023-03-02T22:21:52.793Z,5.60
2023-03-02T22:26:11.695Z,5.30
2023-03-02T22:30:21.637Z,5.30
2023-03-02T22:34:26.448Z,5.20
2023-03-02T22:38:31.858Z,5.50
2023-03-02T22:42:34.924Z,5.10
2023-03-02T22:46:37.765Z,5.20
2023-03-02T22:50:40.668Z,5.30
2023-03-02T22:54:46.042Z,5.40
2023-03-02T22:58:50.141Z,5.40
2023-03-02T23:02:55.525Z,5.40
2023-03-02T23:07:00.567Z,5.10
2023-03-02T23:11:13.306Z,5.00
2023-03-02T23:15:20.430Z,4.90
2023-03-02T23:19:23.450Z,5.20
2023-03-02T23:23:28.664Z,5.30
2023-03-02T23:27:32.824Z,5.20
2023-03-02T23:31:35.678Z,5.20
2023-03-02T23:35:38.568Z,5.10
2023-03-02T23:39:41.366Z,5.10
2023-03-02T23:43:45.722Z,5.20
2023-03-02T23:47:48.708Z,5.20
2023-03-02T23:51:51.515Z,4.90
2023-03-02T23:55:56.162Z,5.20
